createdAt,value
2016-06-13T00:00:20.465Z,1005.89
2016-06-13T00:01:07.735Z,1005.86
2016-06-13T00:02:07.769Z,1005.86
2016-06-13T00:03:07.787Z,1005.87
2016-06-13T00:04:07.805Z,1005.86
2016-06-13T00:05:07.825Z,1005.82
2016-06-13T00:06:07.859Z,1005.84
2016-06-13T00:07:07.878Z,1005.8
2016-06-13T00:08:07.895Z,1005.8
2016-06-13T00:09:07.899Z,1005.81
2016-06-13T00:10:07.934Z,1005.81
2016-06-13T00:11:07.952Z,1005.82
2016-06-13T00:12:07.971Z,1005.81
2016-06-13T00:13:11.022Z,1005.81
2016-06-13T00:14:08.024Z,1005.8
2016-06-13T00:15:08.027Z,1005.77
2016-06-13T00:16:11.139Z,1005.8
2016-06-13T00:17:20.815Z,1005.77
2016-06-13T00:18:08.646Z,1005.74
2016-06-13T00:19:08.117Z,1005.75
2016-06-13T00:20:08.137Z,1005.72
2016-06-13T00:21:08.155Z,1005.78
2016-06-13T00:22:08.174Z,1005.75
2016-06-13T00:23:08.208Z,1005.74
2016-06-13T00:24:08.212Z,1005.72
2016-06-13T00:26:25.545Z,1005.72
2016-06-13T00:27:23.939Z,1005.74
2016-06-13T00:28:23.957Z,1005.74
2016-06-13T00:29:23.977Z,1005.71
2016-06-13T00:30:23.995Z,1005.73
2016-06-13T00:31:27.045Z,1005.73
2016-06-13T00:32:27.064Z,1005.7
2016-06-13T00:33:30.317Z,1005.69
2016-06-13T00:34:24.086Z,1005.68
2016-06-13T00:35:24.104Z,1005.68
2016-06-13T00:36:24.248Z,1005.68
2016-06-13T00:37:24.142Z,1005.7
2016-06-13T00:38:24.207Z,1005.64
2016-06-13T00:39:24.179Z,1005.69
2016-06-13T00:40:24.199Z,1005.65
2016-06-13T00:41:24.341Z,1005.68
2016-06-13T00:42:24.235Z,1005.64
2016-06-13T00:43:24.254Z,1005.65
2016-06-13T00:44:37.007Z,1005.64
2016-06-13T00:45:24.306Z,1005.61
2016-06-13T00:46:24.310Z,1005.61
2016-06-13T00:47:43.551Z,1005.59
2016-06-13T00:48:24.363Z,1005.61
2016-06-13T00:49:24.382Z,1005.55
2016-06-13T00:50:33.822Z,1005.52
2016-06-13T00:51:33.841Z,1005.56
2016-06-13T00:52:33.875Z,1005.56
2016-06-13T00:53:33.894Z,1005.5
2016-06-13T00:54:46.650Z,1005.5
2016-06-13T00:55:34.462Z,1005.5
2016-06-13T00:56:33.951Z,1005.53
2016-06-13T00:57:33.985Z,1005.46
2016-06-13T00:58:34.004Z,1005.44
2016-06-13T00:59:34.116Z,1005.47
2016-06-13T01:00:34.041Z,1005.43
2016-06-13T01:01:34.059Z,1005.41
2016-06-13T01:02:34.078Z,1005.43
2016-06-13T01:03:34.097Z,1005.39
2016-06-13T01:04:46.854Z,1005.38
2016-06-13T01:05:34.151Z,1005.4
2016-06-13T01:06:34.168Z,1005.4
2016-06-13T01:07:34.171Z,1005.36
2016-06-13T01:08:34.191Z,1005.31
2016-06-13T01:09:59.899Z,1005.35
2016-06-13T01:10:43.824Z,1005.31
2016-06-13T01:11:43.906Z,1005.32
2016-06-13T01:12:43.925Z,1005.32
2016-06-13T01:13:43.880Z,1005.33
2016-06-13T01:14:43.962Z,1005.32
2016-06-13T01:15:43.934Z,1005.33
2016-06-13T01:16:46.983Z,1005.28
2016-06-13T01:17:56.690Z,1005.25
2016-06-13T01:18:44.005Z,1005.27
2016-06-13T01:19:44.008Z,1005.27
2016-06-13T01:20:44.027Z,1005.31
2016-06-13T01:21:47.078Z,1005.26
2016-06-13T01:22:56.815Z,1005.24
2016-06-13T01:23:44.098Z,1005.21
2016-06-13T01:24:44.101Z,1005.25
2016-06-13T01:25:44.120Z,1005.24
2016-06-13T01:26:44.139Z,1005.22
2016-06-13T01:27:44.283Z,1005.19
2016-06-13T01:28:44.192Z,1005.19
2016-06-13T01:29:44.305Z,1005.2
2016-06-13T01:30:44.230Z,1005.19
2016-06-13T01:31:44.498Z,1005.23
2016-06-13T01:32:44.267Z,1005.19
2016-06-13T01:33:59.505Z,1005.17
2016-06-13T01:34:59.523Z,1005.16
2016-06-13T01:35:59.541Z,1005.12
2016-06-13T01:36:59.577Z,1005.1
2016-06-13T01:37:59.595Z,1005.12
2016-06-13T01:38:59.614Z,1005.08
2016-06-13T01:39:59.632Z,1005.08
2016-06-13T01:40:59.651Z,1005.07
2016-06-13T01:41:59.670Z,1005.04
2016-06-13T01:42:59.688Z,1005.02
2016-06-13T01:44:59.727Z,1005.01
2016-06-13T01:45:59.744Z,1005.05
2016-06-13T01:47:18.982Z,1005.01
2016-06-13T01:47:59.797Z,1004.99
2016-06-13T01:48:59.816Z,1004.97
2016-06-13T01:49:59.820Z,1004.97
2016-06-13T01:50:59.853Z,1004.99
2016-06-13T01:51:59.872Z,1004.93
2016-06-13T01:52:59.890Z,1004.95
2016-06-13T01:53:59.910Z,1004.95
2016-06-13T01:54:59.928Z,1004.94
2016-06-13T01:56:00.463Z,1004.9
2016-06-13T01:57:09.981Z,1004.9
2016-06-13T01:58:10.047Z,1004.89
2016-06-13T01:59:10.034Z,1004.91
2016-06-13T02:00:10.037Z,1004.91
2016-06-13T02:01:10.057Z,1004.89
2016-06-13T02:02:29.278Z,1004.87
2016-06-13T02:03:13.234Z,1004.86
2016-06-13T02:04:13.269Z,1004.81
2016-06-13T02:05:13.271Z,1004.83
2016-06-13T02:06:13.291Z,1004.79
2016-06-13T02:07:13.309Z,1004.76
2016-06-13T02:08:26.077Z,1004.79
2016-06-13T02:09:13.347Z,1004.73
2016-06-13T02:10:13.365Z,1004.72
2016-06-13T02:11:13.399Z,1004.72
2016-06-13T02:12:13.418Z,1004.72
2016-06-13T02:13:13.437Z,1004.74
2016-06-13T02:14:13.455Z,1004.68
2016-06-13T02:15:13.475Z,1004.72
2016-06-13T02:17:13.511Z,1004.65
2016-06-13T02:18:13.530Z,1004.63
2016-06-13T02:19:13.549Z,1004.64
2016-06-13T02:20:32.771Z,1004.62
2016-06-13T02:21:13.602Z,1004.61
2016-06-13T02:22:13.621Z,1004.61
2016-06-13T02:23:13.624Z,1004.6
2016-06-13T02:24:13.658Z,1004.56
2016-06-13T02:25:23.255Z,1004.57
2016-06-13T02:26:23.695Z,1004.56
2016-06-13T02:27:23.292Z,1004.55
2016-06-13T02:28:23.311Z,1004.57
2016-06-13T02:29:23.330Z,1004.55
2016-06-13T02:30:23.348Z,1004.55
2016-06-13T02:31:23.383Z,1004.52
2016-06-13T02:32:23.402Z,1004.5
2016-06-13T02:33:23.421Z,1004.51
2016-06-13T02:34:23.438Z,1004.48
2016-06-13T02:35:23.458Z,1004.47
2016-06-13T02:36:23.476Z,1004.45
2016-06-13T02:37:23.511Z,1004.42
2016-06-13T02:38:23.514Z,1004.45
2016-06-13T02:39:23.532Z,1004.43
2016-06-13T02:40:36.285Z,1004.41
2016-06-13T02:41:23.570Z,1004.38
2016-06-13T02:42:23.604Z,1004.45
2016-06-13T02:43:23.623Z,1004.39
2016-06-13T02:44:23.626Z,1004.42
2016-06-13T02:45:49.320Z,1004.41
2016-06-13T02:46:25.086Z,1004.38
2016-06-13T02:47:23.698Z,1004.39
2016-06-13T02:48:23.717Z,1004.37
2016-06-13T02:49:25.156Z,1004.35
2016-06-13T02:50:49.429Z,1004.34
2016-06-13T02:51:26.804Z,1004.33
2016-06-13T02:53:23.810Z,1004.36
2016-06-13T02:54:23.844Z,1004.33
2016-06-13T02:55:23.864Z,1004.31
2016-06-13T02:56:23.866Z,1004.32
2016-06-13T02:57:23.900Z,1004.34
2016-06-13T02:58:23.919Z,1004.38
2016-06-13T02:59:43.141Z,1004.36
2016-06-13T03:00:23.957Z,1004.39
2016-06-13T03:01:23.974Z,1004.34
2016-06-13T03:02:24.010Z,1004.31
2016-06-13T03:03:24.013Z,1004.28
2016-06-13T03:04:24.047Z,1004.31
2016-06-13T03:05:43.253Z,1004.29
2016-06-13T03:06:43.287Z,1004.31
2016-06-13T03:08:24.122Z,1004.27
2016-06-13T03:09:24.140Z,1004.3
2016-06-13T03:10:24.159Z,1004.28
2016-06-13T03:11:24.178Z,1004.26
2016-06-13T03:12:24.197Z,1004.26
2016-06-13T03:13:24.214Z,1004.23
2016-06-13T03:14:36.968Z,1004.23
2016-06-13T03:15:24.253Z,1004.22
2016-06-13T03:16:43.473Z,1004.22
2016-06-13T03:17:24.306Z,1004.23
2016-06-13T03:18:24.324Z,1004.2
2016-06-13T03:19:27.358Z,1004.18
2016-06-13T03:20:24.361Z,1004.17
2016-06-13T03:21:24.381Z,1004.17
2016-06-13T03:22:24.399Z,1004.17
2016-06-13T03:23:24.417Z,1004.16
2016-06-13T03:24:40.311Z,1004.13
2016-06-13T03:25:34.065Z,1004.09
2016-06-13T03:26:34.098Z,1004.06
2016-06-13T03:27:34.139Z,1004.05
2016-06-13T03:28:34.183Z,1004.05
2016-06-13T03:29:53.535Z,1004.04
2016-06-13T03:30:34.317Z,1004.02
2016-06-13T03:31:34.375Z,1003.99
2016-06-13T03:32:47.171Z,1003.97
2016-06-13T03:33:34.437Z,1003.98
2016-06-13T03:34:34.486Z,1003.99
2016-06-13T03:35:47.271Z,1003.97
2016-06-13T03:36:34.552Z,1003.93
2016-06-13T03:37:34.580Z,1003.93
2016-06-13T03:38:34.604Z,1003.9
2016-06-13T03:39:34.644Z,1003.94
2016-06-13T03:40:53.880Z,1003.97
2016-06-13T03:41:34.692Z,1003.96
2016-06-13T03:43:34.734Z,1003.92
2016-06-13T03:44:34.802Z,1003.95
2016-06-13T03:45:50.046Z,1003.94
2016-06-13T03:46:50.067Z,1003.95
2016-06-13T03:47:50.087Z,1003.93
2016-06-13T03:48:50.121Z,1003.95
2016-06-13T03:49:51.547Z,1003.94
2016-06-13T03:50:50.160Z,1003.94
2016-06-13T03:51:50.180Z,1003.92
2016-06-13T03:52:50.197Z,1003.92
2016-06-13T03:53:50.233Z,1003.9
2016-06-13T03:54:50.235Z,1003.93
2016-06-13T03:55:51.676Z,1003.88
2016-06-13T03:56:50.288Z,1003.88
2016-06-13T03:58:15.979Z,1003.89
2016-06-13T03:58:59.966Z,1003.88
2016-06-13T04:00:25.657Z,1003.89
2016-06-13T04:01:12.738Z,1003.93
2016-06-13T04:02:00.022Z,1003.91
2016-06-13T04:03:00.042Z,1003.93
2016-06-13T04:04:09.669Z,1003.88
2016-06-13T04:05:35.360Z,1003.89
2016-06-13T04:06:09.706Z,1003.87
2016-06-13T04:07:09.726Z,1003.85
2016-06-13T04:08:11.151Z,1003.85
2016-06-13T04:09:28.965Z,1003.87
2016-06-13T04:10:09.782Z,1003.82
2016-06-13T04:12:25.225Z,1003.83
2016-06-13T04:13:25.212Z,1003.78
2016-06-13T04:14:25.231Z,1003.8
2016-06-13T04:15:25.250Z,1003.78
2016-06-13T04:16:25.269Z,1003.76
2016-06-13T04:17:25.287Z,1003.79
2016-06-13T04:18:25.306Z,1003.78
2016-06-13T04:19:25.341Z,1003.76
2016-06-13T04:20:25.359Z,1003.74
2016-06-13T04:21:26.783Z,1003.76
2016-06-13T04:22:25.396Z,1003.76
2016-06-13T04:23:31.696Z,1003.75
2016-06-13T04:25:53.408Z,1003.75
2016-06-13T04:26:41.142Z,1003.75
2016-06-13T04:28:55.949Z,1003.69
2016-06-13T04:29:55.983Z,1003.66
2016-06-13T04:30:56.003Z,1003.68
2016-06-13T04:31:56.020Z,1003.66
2016-06-13T04:33:21.711Z,1003.64
2016-06-13T04:34:05.651Z,1003.63
2016-06-13T04:35:05.670Z,1003.58
2016-06-13T04:36:05.705Z,1003.62
2016-06-13T04:37:05.723Z,1003.59
2016-06-13T04:38:05.743Z,1003.64
2016-06-13T04:39:18.542Z,1003.57
2016-06-13T04:40:24.983Z,1003.59
2016-06-13T04:41:05.798Z,1003.58
2016-06-13T04:42:05.817Z,1003.57
2016-06-13T04:43:34.633Z,1003.53
2016-06-13T04:44:21.590Z,1003.57
2016-06-13T04:45:47.295Z,1003.54
2016-06-13T04:46:21.626Z,1003.54
2016-06-13T04:47:21.661Z,1003.57
2016-06-13T04:48:36.898Z,1003.58
2016-06-13T04:49:36.916Z,1003.55
2016-06-13T04:50:49.673Z,1003.5
2016-06-13T04:51:40.001Z,1003.49
2016-06-13T04:52:36.989Z,1003.51
2016-06-13T04:53:46.664Z,1003.51
2016-06-13T04:54:56.435Z,1003.56
2016-06-13T04:56:22.079Z,1003.55
2016-06-13T04:57:06.036Z,1003.54
2016-06-13T04:58:06.055Z,1003.58
2016-06-13T04:59:06.072Z,1003.58
2016-06-13T05:00:06.091Z,1003.53
2016-06-13T05:01:18.845Z,1003.55
2016-06-13T05:02:18.879Z,1003.57
2016-06-13T05:03:31.835Z,1003.53
2016-06-13T05:04:06.182Z,1003.54
2016-06-13T05:06:09.250Z,1003.5
2016-06-13T05:07:06.238Z,1003.51
2016-06-13T05:08:12.538Z,1003.46
2016-06-13T05:09:19.025Z,1003.48
2016-06-13T05:10:06.294Z,1003.46
2016-06-13T05:11:06.328Z,1003.48
2016-06-13T05:12:06.362Z,1003.43
2016-06-13T05:13:06.568Z,1003.45
2016-06-13T05:14:06.588Z,1003.42
2016-06-13T05:15:07.982Z,1003.44
2016-06-13T05:16:06.577Z,1003.37
2016-06-13T05:17:06.597Z,1003.42
2016-06-13T05:18:32.256Z,1003.39
2016-06-13T05:19:15.884Z,1003.39
2016-06-13T05:20:41.575Z,1003.37
2016-06-13T05:21:15.937Z,1003.39
2016-06-13T05:22:15.940Z,1003.36
2016-06-13T05:23:35.177Z,1003.35
2016-06-13T05:24:15.993Z,1003.38
2016-06-13T05:25:16.012Z,1003.33
2016-06-13T05:26:31.266Z,1003.33
2016-06-13T05:27:31.284Z,1003.36
2016-06-13T05:28:31.302Z,1003.34
2016-06-13T05:29:34.399Z,1003.33
2016-06-13T05:30:44.074Z,1003.31
2016-06-13T05:31:31.359Z,1003.35
2016-06-13T05:32:31.393Z,1003.34
2016-06-13T05:33:44.146Z,1003.36
2016-06-13T05:34:31.430Z,1003.35
2016-06-13T05:35:57.124Z,1003.34
2016-06-13T05:36:32.874Z,1003.35
2016-06-13T05:37:31.486Z,1003.33
2016-06-13T05:38:31.520Z,1003.36
2016-06-13T05:39:31.539Z,1003.33
2016-06-13T05:40:31.558Z,1003.32
2016-06-13T05:41:33.029Z,1003.34
2016-06-13T05:42:31.596Z,1003.26
2016-06-13T05:43:31.614Z,1003.31
2016-06-13T05:44:33.039Z,1003.32
2016-06-13T05:45:37.074Z,1003.32
2016-06-13T05:46:37.077Z,1003.33
2016-06-13T05:47:37.111Z,1003.31
2016-06-13T05:48:49.864Z,1003.31
2016-06-13T05:49:40.179Z,1003.32
2016-06-13T05:50:37.214Z,1003.28
2016-06-13T05:51:37.185Z,1003.28
2016-06-13T05:52:40.298Z,1003.26
2016-06-13T05:53:37.238Z,1003.29
2016-06-13T05:54:37.258Z,1003.26
2016-06-13T05:55:40.308Z,1003.25
2016-06-13T05:56:37.294Z,1003.23
2016-06-13T05:57:37.314Z,1003.25
2016-06-13T05:59:03.023Z,1003.23
2016-06-13T05:59:49.960Z,1003.2
2016-06-13T06:00:49.995Z,1003.27
2016-06-13T06:01:50.012Z,1003.22
2016-06-13T06:02:51.441Z,1003.26
2016-06-13T06:03:51.475Z,1003.22
2016-06-13T06:05:15.744Z,1003.23
2016-06-13T06:05:50.088Z,1003.23
2016-06-13T06:06:50.123Z,1003.19
2016-06-13T06:07:50.141Z,1003.25
2016-06-13T06:08:50.159Z,1003.21
2016-06-13T06:10:09.385Z,1003.22
2016-06-13T06:10:53.247Z,1003.22
2016-06-13T06:13:13.160Z,1003.24
2016-06-13T06:14:11.756Z,1003.22
2016-06-13T06:15:18.056Z,1003.23
2016-06-13T06:16:11.825Z,1003.22
2016-06-13T06:17:31.047Z,1003.24
2016-06-13T06:18:15.018Z,1003.22
2016-06-13T06:19:15.037Z,1003.23
2016-06-13T06:21:24.684Z,1003.22
2016-06-13T06:22:24.718Z,1003.22
2016-06-13T06:23:34.347Z,1003.2
2016-06-13T06:24:34.365Z,1003.19
2016-06-13T06:25:34.383Z,1003.2
2016-06-13T06:26:34.403Z,1003.2
2016-06-13T06:27:34.437Z,1003.18
2016-06-13T06:28:47.190Z,1003.2
2016-06-13T06:29:34.474Z,1003.19
2016-06-13T06:30:34.508Z,1003.18
2016-06-13T06:31:44.121Z,1003.17
2016-06-13T06:32:44.155Z,1003.19
2016-06-13T06:33:44.174Z,1003.15
2016-06-13T06:34:45.615Z,1003.18
2016-06-13T06:35:44.212Z,1003.18
2016-06-13T06:36:47.277Z,1003.19
2016-06-13T06:38:09.939Z,1003.18
2016-06-13T06:38:54.208Z,1003.16
2016-06-13T06:39:54.024Z,1003.15
2016-06-13T06:42:09.389Z,1003.15
2016-06-13T06:43:09.517Z,1003.14
2016-06-13T06:44:28.645Z,1003.17
2016-06-13T06:45:12.492Z,1003.17
2016-06-13T06:46:09.479Z,1003.15
2016-06-13T06:47:09.499Z,1003.16
2016-06-13T06:48:09.517Z,1003.09
2016-06-13T06:49:09.536Z,1003.09
2016-06-13T06:50:09.569Z,1003.08
2016-06-13T06:51:22.339Z,1003.05
2016-06-13T06:52:09.623Z,1003.05
2016-06-13T06:53:09.642Z,1003.05
2016-06-13T06:54:28.864Z,1003.03
2016-06-13T06:55:09.694Z,1003.03
2016-06-13T06:56:09.698Z,1003.05
2016-06-13T06:57:24.951Z,1003.03
2016-06-13T06:58:24.985Z,1003.02
2016-06-13T06:59:25.004Z,1003.01
2016-06-13T07:00:25.022Z,1003.03
2016-06-13T07:01:25.058Z,1002.99
2016-06-13T07:02:25.091Z,1002.99
2016-06-13T07:03:37.828Z,1003.03
2016-06-13T07:04:25.270Z,1003.04
2016-06-13T07:05:25.148Z,1003.02
2016-06-13T07:06:44.369Z,1003.03
2016-06-13T07:07:25.185Z,1003.02
2016-06-13T07:08:25.204Z,1003.05
2016-06-13T07:09:25.238Z,1003.04
2016-06-13T07:10:25.256Z,1003.02
2016-06-13T07:11:25.275Z,1003.06
2016-06-13T07:12:25.309Z,1003.03
2016-06-13T07:13:25.328Z,1003.04
2016-06-13T07:14:25.348Z,1003.05
2016-06-13T07:15:38.100Z,1003.03
2016-06-13T07:16:25.400Z,1002.99
2016-06-13T07:17:25.513Z,1003.02
2016-06-13T07:18:25.438Z,1002.99
2016-06-13T07:19:25.472Z,1002.95
2016-06-13T07:21:40.806Z,1002.93
2016-06-13T07:22:40.840Z,1002.91
2016-06-13T07:23:40.859Z,1002.9
2016-06-13T07:25:00.100Z,1002.86
2016-06-13T07:25:40.960Z,1002.87
2016-06-13T07:26:40.930Z,1002.89
2016-06-13T07:27:40.949Z,1002.87
2016-06-13T07:28:40.969Z,1002.89
2016-06-13T07:29:42.425Z,1002.9
2016-06-13T07:31:00.242Z,1002.94
2016-06-13T07:31:47.305Z,1002.92
2016-06-13T07:33:06.749Z,1002.93
2016-06-13T07:33:41.109Z,1002.93
2016-06-13T07:34:41.173Z,1002.93
2016-06-13T07:35:41.146Z,1002.91
2016-06-13T07:36:41.165Z,1002.89
2016-06-13T07:37:41.183Z,1002.87
2016-06-13T07:38:41.233Z,1002.89
2016-06-13T07:39:41.236Z,1002.86
2016-06-13T07:41:00.462Z,1002.88
2016-06-13T07:41:44.415Z,1002.88
2016-06-13T07:42:44.433Z,1002.84
2016-06-13T07:43:44.468Z,1002.89
2016-06-13T07:44:44.486Z,1002.91
2016-06-13T07:45:44.504Z,1002.86
2016-06-13T07:46:44.538Z,1002.84
2016-06-13T07:47:44.558Z,1002.8
2016-06-13T07:48:47.623Z,1002.82
2016-06-13T07:49:57.348Z,1002.85
2016-06-13T07:50:44.629Z,1002.82
2016-06-13T07:52:10.339Z,1002.8
2016-06-13T07:52:44.729Z,1002.82
2016-06-13T07:53:44.702Z,1002.83
2016-06-13T07:54:54.298Z,1002.8
2016-06-13T07:56:54.336Z,1002.8
2016-06-13T07:57:54.370Z,1002.84
2016-06-13T07:58:54.403Z,1002.81
2016-06-13T07:59:55.817Z,1002.86
2016-06-13T08:00:54.426Z,1002.88
2016-06-13T08:01:54.460Z,1002.85
2016-06-13T08:03:13.685Z,1002.8
2016-06-13T08:04:04.016Z,1002.84
2016-06-13T08:04:57.769Z,1002.86
2016-06-13T08:05:57.803Z,1002.84
2016-06-13T08:06:57.822Z,1002.8
2016-06-13T08:08:04.106Z,1002.81
2016-06-13T08:08:57.876Z,1002.75
2016-06-13T08:10:57.912Z,1002.76
2016-06-13T08:11:57.932Z,1002.75
2016-06-13T08:13:13.310Z,1002.76
2016-06-13T08:14:13.202Z,1002.75
2016-06-13T08:15:14.628Z,1002.73
2016-06-13T08:16:32.443Z,1002.7
2016-06-13T08:17:13.275Z,1002.74
2016-06-13T08:18:13.309Z,1002.71
2016-06-13T08:19:13.312Z,1002.72
2016-06-13T08:20:13.346Z,1002.7
2016-06-13T08:21:13.366Z,1002.74
2016-06-13T08:22:13.384Z,1002.72
2016-06-13T08:23:26.294Z,1002.68
2016-06-13T08:24:13.437Z,1002.7
2016-06-13T08:25:13.471Z,1002.7
2016-06-13T08:26:13.475Z,1002.69
2016-06-13T08:27:26.259Z,1002.71
2016-06-13T08:28:14.214Z,1002.67
2016-06-13T08:29:13.562Z,1002.69
2016-06-13T08:30:13.581Z,1002.68
2016-06-13T08:31:13.615Z,1002.67
2016-06-13T08:32:13.633Z,1002.64
2016-06-13T08:33:13.652Z,1002.65
2016-06-13T08:34:13.671Z,1002.66
2016-06-13T08:35:13.705Z,1002.64
2016-06-13T08:36:13.725Z,1002.65
2016-06-13T08:37:13.743Z,1002.63
2016-06-13T08:38:13.777Z,1002.66
2016-06-13T08:39:13.795Z,1002.61
2016-06-13T08:40:13.830Z,1002.64
2016-06-13T08:41:26.583Z,1002.63
2016-06-13T08:42:13.882Z,1002.61
2016-06-13T08:43:13.902Z,1002.65
2016-06-13T08:44:13.920Z,1002.65
2016-06-13T08:45:29.158Z,1002.61
2016-06-13T08:46:29.176Z,1002.6
2016-06-13T08:47:29.195Z,1002.61
2016-06-13T08:48:29.229Z,1002.62
2016-06-13T08:49:41.999Z,1002.61
2016-06-13T08:50:29.282Z,1002.62
2016-06-13T08:51:29.301Z,1002.68
2016-06-13T08:52:29.320Z,1002.65
2016-06-13T08:53:29.355Z,1002.63
2016-06-13T08:55:44.611Z,1002.68
2016-06-13T08:56:44.629Z,1002.66
2016-06-13T08:57:45.460Z,1002.64
2016-06-13T08:58:44.682Z,1002.66
2016-06-13T08:59:44.701Z,1002.66
2016-06-13T09:00:44.719Z,1002.65
2016-06-13T09:02:03.960Z,1002.66
2016-06-13T09:02:44.772Z,1002.6
2016-06-13T09:03:44.807Z,1002.64
2016-06-13T09:04:44.825Z,1002.59
2016-06-13T09:05:44.954Z,1002.58
2016-06-13T09:06:44.878Z,1002.55
2016-06-13T09:07:44.913Z,1002.51
2016-06-13T09:08:44.932Z,1002.55
2016-06-13T09:09:47.982Z,1002.54
2016-06-13T09:10:44.985Z,1002.55
2016-06-13T09:11:51.268Z,1002.53
2016-06-13T09:12:45.022Z,1002.53
2016-06-13T09:13:45.056Z,1002.52
2016-06-13T09:14:45.075Z,1002.52
2016-06-13T09:16:04.301Z,1002.48
2016-06-13T09:16:45.129Z,1002.46
2016-06-13T09:17:45.162Z,1002.48
2016-06-13T09:18:45.181Z,1002.48
2016-06-13T09:19:45.200Z,1002.46
2016-06-13T09:20:57.955Z,1002.41
2016-06-13T09:21:54.783Z,1002.44
2016-06-13T09:22:54.803Z,1002.44
2016-06-13T09:23:54.837Z,1002.43
2016-06-13T09:24:54.855Z,1002.42
2016-06-13T09:25:54.890Z,1002.43
2016-06-13T09:27:07.646Z,1002.44
2016-06-13T09:28:54.962Z,1002.4
2016-06-13T09:29:54.997Z,1002.4
2016-06-13T09:30:54.999Z,1002.4
2016-06-13T09:31:55.080Z,1002.4
2016-06-13T09:33:58.118Z,1002.49
2016-06-13T09:34:55.106Z,1002.47
2016-06-13T09:36:20.814Z,1002.43
2016-06-13T09:36:55.158Z,1002.46
2016-06-13T09:37:55.177Z,1002.39
2016-06-13T09:39:04.902Z,1002.42
2016-06-13T09:40:04.921Z,1002.39
2016-06-13T09:41:20.174Z,1002.39
2016-06-13T09:42:20.192Z,1002.4
2016-06-13T09:43:20.212Z,1002.42
2016-06-13T09:44:20.246Z,1002.36
2016-06-13T09:45:20.264Z,1002.39
2016-06-13T09:46:20.298Z,1002.35
2016-06-13T09:47:39.521Z,1002.38
2016-06-13T09:48:20.352Z,1002.36
2016-06-13T09:49:20.369Z,1002.35
2016-06-13T09:50:33.139Z,1002.34
2016-06-13T09:51:20.408Z,1002.33
2016-06-13T09:52:20.442Z,1002.41
2016-06-13T09:53:20.461Z,1002.39
2016-06-13T09:54:20.495Z,1002.37
2016-06-13T09:55:21.936Z,1002.41
2016-06-13T09:56:33.282Z,1002.36
2016-06-13T09:57:20.566Z,1002.34
2016-06-13T09:58:20.602Z,1002.38
2016-06-13T09:59:20.619Z,1002.32
2016-06-13T10:00:22.060Z,1002.37
2016-06-13T10:01:37.297Z,1002.32
2016-06-13T10:02:37.317Z,1002.34
2016-06-13T10:03:37.335Z,1002.33
2016-06-13T10:04:37.478Z,1002.28
2016-06-13T10:05:37.404Z,1002.26
2016-06-13T10:07:52.675Z,1002.24
2016-06-13T10:08:52.694Z,1002.24
2016-06-13T10:10:05.466Z,1002.2
2016-06-13T10:10:52.747Z,1002.15
2016-06-13T10:11:52.766Z,1002.17
2016-06-13T10:12:52.801Z,1002.17
2016-06-13T10:13:52.819Z,1002.12
2016-06-13T10:14:52.853Z,1002.14
2016-06-13T10:15:56.012Z,1002.15
2016-06-13T10:16:56.047Z,1002.16
2016-06-13T10:18:08.819Z,1002.17
2016-06-13T10:18:56.100Z,1002.16
2016-06-13T10:19:56.149Z,1002.18
2016-06-13T10:21:15.359Z,1002.16
2016-06-13T10:21:56.187Z,1002.13
2016-06-13T10:22:56.206Z,1002.16
2016-06-13T10:23:59.271Z,1002.15
2016-06-13T10:24:56.244Z,1002.15
2016-06-13T10:25:56.277Z,1002.11
2016-06-13T10:26:56.296Z,1002.12
2016-06-13T10:28:09.397Z,1002.13
2016-06-13T10:28:56.475Z,1002.12
2016-06-13T10:29:56.384Z,1002.09
2016-06-13T10:30:56.402Z,1002.1
2016-06-13T10:31:56.437Z,1002.05
2016-06-13T10:32:56.471Z,1002.08
2016-06-13T10:33:56.490Z,1002.08
2016-06-13T10:34:57.930Z,1002.09
2016-06-13T10:35:56.528Z,1002.06
2016-06-13T10:37:15.767Z,1002.05
2016-06-13T10:37:56.580Z,1002
2016-06-13T10:38:56.614Z,1002.01
2016-06-13T10:39:56.633Z,1002
2016-06-13T10:40:56.667Z,1002.02
2016-06-13T10:42:15.893Z,1002.03
2016-06-13T10:42:57.002Z,1001.98
2016-06-13T10:43:57.302Z,1001.99
2016-06-13T10:44:56.757Z,1002.02
2016-06-13T10:46:09.530Z,1002
2016-06-13T10:46:56.827Z,1001.98
2016-06-13T10:48:16.036Z,1001.98
2016-06-13T10:48:58.286Z,1002.02
2016-06-13T10:49:56.945Z,1002
2016-06-13T10:50:56.917Z,1001.98
2016-06-13T10:52:16.157Z,1001.93
2016-06-13T10:52:57.126Z,1001.92
2016-06-13T10:53:56.988Z,1001.94
2016-06-13T10:54:57.023Z,1001.93
2016-06-13T10:56:00.089Z,1001.87
2016-06-13T10:56:57.061Z,1001.9
2016-06-13T10:57:57.517Z,1001.84
2016-06-13T10:58:57.114Z,1001.83
2016-06-13T10:59:57.148Z,1001.89
2016-06-13T11:00:57.182Z,1001.88
2016-06-13T11:02:00.232Z,1001.83
2016-06-13T11:02:57.219Z,1001.84
2016-06-13T11:03:57.254Z,1001.84
2016-06-13T11:04:57.272Z,1001.82
2016-06-13T11:05:57.307Z,1001.81
2016-06-13T11:06:57.311Z,1001.81
2016-06-13T11:07:57.345Z,1001.79
2016-06-13T11:09:00.395Z,1001.78
2016-06-13T11:09:57.398Z,1001.76
2016-06-13T11:10:57.416Z,1001.79
2016-06-13T11:11:57.451Z,1001.76
2016-06-13T11:12:57.485Z,1001.74
2016-06-13T11:13:57.488Z,1001.74
2016-06-13T11:15:16.728Z,1001.74
2016-06-13T11:16:00.681Z,1001.76
2016-06-13T11:17:00.716Z,1001.73
2016-06-13T11:18:00.734Z,1001.75
2016-06-13T11:19:00.753Z,1001.71
2016-06-13T11:20:00.787Z,1001.71
2016-06-13T11:21:00.807Z,1001.66
2016-06-13T11:23:02.281Z,1001.62
2016-06-13T11:24:00.893Z,1001.6
2016-06-13T11:25:00.912Z,1001.64
2016-06-13T11:26:00.931Z,1001.6
2016-06-13T11:27:00.965Z,1001.58
2016-06-13T11:28:00.984Z,1001.58
2016-06-13T11:29:01.018Z,1001.63
2016-06-13T11:30:13.993Z,1001.6
2016-06-13T11:31:01.071Z,1001.58
2016-06-13T11:32:01.090Z,1001.62
2016-06-13T11:33:20.314Z,1001.59
2016-06-13T11:34:01.143Z,1001.57
2016-06-13T11:36:01.181Z,1001.55
2016-06-13T11:37:01.215Z,1001.54
2016-06-13T11:38:10.846Z,1001.56
2016-06-13T11:39:10.865Z,1001.6
2016-06-13T11:40:10.883Z,1001.58
2016-06-13T11:41:10.918Z,1001.57
2016-06-13T11:42:10.952Z,1001.59
2016-06-13T11:43:23.689Z,1001.56
2016-06-13T11:44:11.006Z,1001.59
2016-06-13T11:45:11.024Z,1001.57
2016-06-13T11:46:12.464Z,1001.58
2016-06-13T11:47:15.732Z,1001.53
2016-06-13T11:48:15.751Z,1001.5
2016-06-13T11:49:15.770Z,1001.49
2016-06-13T11:50:15.804Z,1001.52
2016-06-13T11:51:15.824Z,1001.46
2016-06-13T11:52:28.592Z,1001.45
2016-06-13T11:53:15.892Z,1001.43
2016-06-13T11:54:41.583Z,1001.41
2016-06-13T11:55:31.804Z,1001.38
2016-06-13T11:56:51.245Z,1001.33
2016-06-13T11:57:41.499Z,1001.37
2016-06-13T11:58:35.298Z,1001.38
2016-06-13T11:59:35.332Z,1001.41
2016-06-13T12:00:35.351Z,1001.42
2016-06-13T12:01:48.073Z,1001.46
2016-06-13T12:02:35.358Z,1001.46
2016-06-13T12:04:01.063Z,1001.48
2016-06-13T12:04:45.129Z,1001.47
2016-06-13T12:06:04.350Z,1001.52
2016-06-13T12:06:45.181Z,1001.51
2016-06-13T12:09:00.485Z,1001.47
2016-06-13T12:10:00.504Z,1001.41
2016-06-13T12:11:00.522Z,1001.4
2016-06-13T12:12:00.572Z,1001.35
2016-06-13T12:13:00.591Z,1001.34
2016-06-13T12:14:00.625Z,1001.29
2016-06-13T12:15:00.659Z,1001.27
2016-06-13T12:16:00.679Z,1001.21
2016-06-13T12:17:00.696Z,1001.16
2016-06-13T12:18:19.953Z,1001.12
2016-06-13T12:19:02.188Z,1001.24
2016-06-13T12:21:00.819Z,1001.13
2016-06-13T12:22:00.853Z,1001.17
2016-06-13T12:23:00.887Z,1001.17
2016-06-13T12:24:02.312Z,1001.14
2016-06-13T12:25:00.940Z,1001.12
2016-06-13T12:26:00.975Z,1001.17
2016-06-13T12:27:01.009Z,1001.16
2016-06-13T12:28:01.043Z,1001.12
2016-06-13T12:29:20.269Z,1001.16
2016-06-13T12:30:02.503Z,1001.08
2016-06-13T12:31:01.115Z,1001.11
2016-06-13T12:32:13.887Z,1001.07
2016-06-13T12:33:01.168Z,1001.06
2016-06-13T12:34:01.234Z,1001.06
2016-06-13T12:35:01.309Z,1001.02
2016-06-13T12:36:01.368Z,1001.03
2016-06-13T12:37:01.443Z,1001.09
2016-06-13T12:38:02.924Z,1001.04
2016-06-13T12:39:01.557Z,1001.03
2016-06-13T12:40:01.606Z,1001.03
2016-06-13T12:41:01.655Z,1000.98